sensor_id;sensor_type;location;lat;lon;timestamp;pressure;altitude;pressure_sealevel;temperature;humidity
29045;BME280;16133;49.486;12.176;2023-05-29T00:02:03;97531.94;;;9.56;100.00
29045;BME280;16133;49.486;12.176;2023-05-29T00:04:29;97530.13;;;9.49;100.00
29045;BME280;16133;49.486;12.176;2023-05-29T00:06:54;97531.13;;;9.48;100.00
29045;BME280;16133;49.486;12.176;2023-05-29T00:09:20;97532.94;;;9.47;100.00
29045;BME280;16133;49.486;12.176;2023-05-29T00:11:46;97534.72;;;9.55;100.00
29045;BME280;16133;49.486;12.176;2023-05-29T00:14:16;97528.31;;;9.49;100.00
29045;BME280;16133;49.486;12.176;2023-05-29T00:16:44;97535.78;;;9.46;100.00
29045;BME280;16133;49.486;12.176;2023-05-29T00:19:09;97510.50;;;9.27;100.00
29045;BME280;16133;49.486;12.176;2023-05-29T00:21:35;97533.78;;;9.32;100.00
29045;BME280;16133;49.486;12.176;2023-05-29T00:24:00;97530.66;;;9.20;100.00
29045;BME280;16133;49.486;12.176;2023-05-29T00:26:25;97538.13;;;9.08;100.00
29045;BME280;16133;49.486;12.176;2023-05-29T00:28:51;97535.19;;;8.95;100.00
29045;BME280;16133;49.486;12.176;2023-05-29T00:31:16;97525.44;;;8.88;100.00
29045;BME280;16133;49.486;12.176;2023-05-29T00:33:42;97540.31;;;8.81;100.00
29045;BME280;16133;49.486;12.176;2023-05-29T00:36:08;97525.91;;;8.67;100.00
29045;BME280;16133;49.486;12.176;2023-05-29T00:38:33;97534.66;;;8.68;100.00
29045;BME280;16133;49.486;12.176;2023-05-29T00:40:59;97534.50;;;8.61;100.00
29045;BME280;16133;49.486;12.176;2023-05-29T00:43:24;97539.13;;;8.59;100.00
29045;BME280;16133;49.486;12.176;2023-05-29T00:45:50;97532.69;;;8.53;100.00
29045;BME280;16133;49.486;12.176;2023-05-29T00:48:16;97532.66;;;8.45;100.00
29045;BME280;16133;49.486;12.176;2023-05-29T00:50:43;97533.66;;;8.44;100.00
29045;BME280;16133;49.486;12.176;2023-05-29T00:53:11;97539.09;;;8.35;100.00
29045;BME280;16133;49.486;12.176;2023-05-29T00:55:38;97539.88;;;8.27;100.00
29045;BME280;16133;49.486;12.176;2023-05-29T00:58:04;97534.41;;;8.21;100.00
29045;BME280;16133;49.486;12.176;2023-05-29T01:00:30;97525.97;;;8.17;100.00
29045;BME280;16133;49.486;12.176;2023-05-29T01:02:56;97536.03;;;8.13;100.00
29045;BME280;16133;49.486;12.176;2023-05-29T01:05:23;97532.75;;;8.11;100.00
29045;BME280;16133;49.486;12.176;2023-05-29T01:07:48;97528.91;;;8.06;100.00
29045;BME280;16133;49.486;12.176;2023-05-29T01:10:14;97525.13;;;8.00;100.00
29045;BME280;16133;49.486;12.176;2023-05-29T01:12:57;97526.75;;;7.93;100.00
29045;BME280;16133;49.486;12.176;2023-05-29T01:18:41;97526.22;;;7.82;100.00
29045;BME280;16133;49.486;12.176;2023-05-29T01:21:14;97529.31;;;7.77;100.00
29045;BME280;16133;49.486;12.176;2023-05-29T01:29:07;97521.19;;;7.70;100.00
29045;BME280;16133;49.486;12.176;2023-05-29T01:31:32;97531.94;;;7.69;100.00
29045;BME280;16133;49.486;12.176;2023-05-29T01:33:59;97527.47;;;7.69;100.00
29045;BME280;16133;49.486;12.176;2023-05-29T01:36:26;97526.66;;;7.69;100.00
29045;BME280;16133;49.486;12.176;2023-05-29T01:38:53;97529.97;;;7.79;100.00
29045;BME280;16133;49.486;12.176;2023-05-29T01:41:21;97525.06;;;7.84;100.00
29045;BME280;16133;49.486;12.176;2023-05-29T01:43:48;97525.88;;;7.85;100.00
29045;BME280;16133;49.486;12.176;2023-05-29T01:46:14;97527.22;;;7.89;100.00
29045;BME280;16133;49.486;12.176;2023-05-29T01:48:41;97531.34;;;7.91;100.00
29045;BME280;16133;49.486;12.176;2023-05-29T01:51:11;97520.97;;;7.98;100.00
29045;BME280;16133;49.486;12.176;2023-05-29T01:53:41;97518.81;;;7.93;100.00
29045;BME280;16133;49.486;12.176;2023-05-29T01:56:07;97519.44;;;7.87;100.00
29045;BME280;16133;49.486;12.176;2023-05-29T01:58:34;97513.16;;;7.80;100.00
29045;BME280;16133;49.486;12.176;2023-05-29T02:01:01;97509.13;;;7.68;100.00
29045;BME280;16133;49.486;12.176;2023-05-29T02:03:28;97511.09;;;7.58;100.00
29045;BME280;16133;49.486;12.176;2023-05-29T02:05:55;97509.25;;;7.50;100.00
29045;BME280;16133;49.486;12.176;2023-05-29T02:08:21;97514.28;;;7.44;100.00
29045;BME280;16133;49.486;12.176;2023-05-29T02:10:46;97510.94;;;7.34;100.00
29045;BME280;16133;49.486;12.176;2023-05-29T02:13:11;97508.25;;;7.26;100.00
29045;BME280;16133;49.486;12.176;2023-05-29T02:15:37;97509.22;;;7.16;100.00
29045;BME280;16133;49.486;12.176;2023-05-29T02:18:02;97483.84;;;6.98;100.00
29045;BME280;16133;49.486;12.176;2023-05-29T02:20:28;97504.91;;;7.15;100.00
29045;BME280;16133;49.486;12.176;2023-05-29T02:22:53;97510.50;;;7.12;100.00
29045;BME280;16133;49.486;12.176;2023-05-29T02:25:18;97508.16;;;7.09;100.00
29045;BME280;16133;49.486;12.176;2023-05-29T02:27:44;97503.53;;;7.03;100.00
29045;BME280;16133;49.486;12.176;2023-05-29T02:30:09;97499.00;;;6.96;100.00
29045;BME280;16133;49.486;12.176;2023-05-29T02:32:35;97498.13;;;6.87;100.00
29045;BME280;16133;49.486;12.176;2023-05-29T02:35:01;97491.81;;;6.80;100.00
29045;BME280;16133;49.486;12.176;2023-05-29T02:37:27;97483.69;;;6.73;100.00
29045;BME280;16133;49.486;12.176;2023-05-29T02:39:53;97491.38;;;6.67;100.00
29045;BME280;16133;49.486;12.176;2023-05-29T02:42:18;97482.94;;;6.63;100.00
29045;BME280;16133;49.486;12.176;2023-05-29T02:44:44;97491.47;;;6.57;100.00
29045;BME280;16133;49.486;12.176;2023-05-29T02:47:09;97488.31;;;6.54;100.00
29045;BME280;16133;49.486;12.176;2023-05-29T02:49:34;97485.69;;;6.54;100.00
29045;BME280;16133;49.486;12.176;2023-05-29T02:52:00;97479.91;;;6.50;100.00
29045;BME280;16133;49.486;12.176;2023-05-29T02:54:25;97470.47;;;6.48;100.00
29045;BME280;16133;49.486;12.176;2023-05-29T02:56:52;97470.47;;;6.48;100.00
29045;BME280;16133;49.486;12.176;2023-05-29T02:59:17;97466.19;;;6.47;100.00
29045;BME280;16133;49.486;12.176;2023-05-29T03:01:43;97468.84;;;6.47;100.00
29045;BME280;16133;49.486;12.176;2023-05-29T03:04:12;97478.38;;;6.48;100.00
29045;BME280;16133;49.486;12.176;2023-05-29T03:06:37;97471.59;;;6.45;100.00
29045;BME280;16133;49.486;12.176;2023-05-29T03:09:03;97460.53;;;6.42;100.00
29045;BME280;16133;49.486;12.176;2023-05-29T03:11:30;97461.50;;;6.41;100.00
29045;BME280;16133;49.486;12.176;2023-05-29T03:13:56;97456.63;;;6.46;100.00
29045;BME280;16133;49.486;12.176;2023-05-29T03:16:21;97464.66;;;6.44;100.00
29045;BME280;16133;49.486;12.176;2023-05-29T03:18:47;97457.25;;;6.40;100.00
29045;BME280;16133;49.486;12.176;2023-05-29T03:21:13;97468.13;;;6.45;100.00
29045;BME280;16133;49.486;12.176;2023-05-29T03:23:39;97456.63;;;6.46;100.00
29045;BME280;16133;49.486;12.176;2023-05-29T03:26:04;97459.25;;;6.46;100.00
29045;BME280;16133;49.486;12.176;2023-05-29T03:28:31;97447.75;;;6.47;100.00
29045;BME280;16133;49.486;12.176;2023-05-29T03:30:56;97459.78;;;6.49;100.00
29045;BME280;16133;49.486;12.176;2023-05-29T03:33:22;97456.69;;;6.54;100.00
29045;BME280;16133;49.486;12.176;2023-05-29T03:35:47;97459.53;;;6.60;100.00
29045;BME280;16133;49.486;12.176;2023-05-29T03:38:12;97461.41;;;6.68;100.00
29045;BME280;16133;49.486;12.176;2023-05-29T03:40:38;97451.03;;;6.66;100.00
29045;BME280;16133;49.486;12.176;2023-05-29T03:43:03;97465.75;;;6.77;100.00
29045;BME280;16133;49.486;12.176;2023-05-29T03:45:28;97469.56;;;6.83;100.00
29045;BME280;16133;49.486;12.176;2023-05-29T03:47:54;97471.59;;;6.89;100.00
29045;BME280;16133;49.486;12.176;2023-05-29T03:50:19;97473.63;;;6.95;100.00
29045;BME280;16133;49.486;12.176;2023-05-29T03:52:44;97476.63;;;7.00;100.00
29045;BME280;16133;49.486;12.176;2023-05-29T03:55:10;97480.44;;;7.05;100.00
29045;BME280;16133;49.486;12.176;2023-05-29T03:57:40;97484.13;;;7.12;100.00
29045;BME280;16133;49.486;12.176;2023-05-29T04:00:10;97480.84;;;7.18;100.00
29045;BME280;16133;49.486;12.176;2023-05-29T04:02:39;97489.66;;;7.27;100.00
29045;BME280;16133;49.486;12.176;2023-05-29T04:05:06;97485.53;;;7.33;100.00
29045;BME280;16133;49.486;12.176;2023-05-29T04:07:32;97499.13;;;7.46;100.00
29045;BME280;16133;49.486;12.176;2023-05-29T04:09:58;97505.13;;;7.56;100.00
29045;BME280;16133;49.486;12.176;2023-05-29T04:12:23;97498.44;;;7.69;100.00
29045;BME280;16133;49.486;12.176;2023-05-29T04:14:48;97507.22;;;7.86;100.00
29045;BME280;16133;49.486;12.176;2023-05-29T04:17:14;97514.22;;;8.03;100.00
29045;BME280;16133;49.486;12.176;2023-05-29T04:19:40;97524.00;;;8.19;100.00
29045;BME280;16133;49.486;12.176;2023-05-29T04:22:05;97513.66;;;8.34;100.00
29045;BME280;16133;49.486;12.176;2023-05-29T04:24:30;97525.25;;;8.49;100.00
29045;BME280;16133;49.486;12.176;2023-05-29T04:26:57;97528.56;;;8.67;100.00
29045;BME280;16133;49.486;12.176;2023-05-29T04:29:25;97531.34;;;8.82;100.00
29045;BME280;16133;49.486;12.176;2023-05-29T04:31:51;97543.59;;;8.99;100.00
29045;BME280;16133;49.486;12.176;2023-05-29T04:34:16;97537.28;;;9.16;100.00
29045;BME280;16133;49.486;12.176;2023-05-29T04:36:42;97545.06;;;9.34;100.00
29045;BME280;16133;49.486;12.176;2023-05-29T04:39:08;97547.97;;;9.55;100.00
29045;BME280;16133;49.486;12.176;2023-05-29T04:41:34;97542.13;;;9.76;100.00
29045;BME280;16133;49.486;12.176;2023-05-29T04:44:00;97561.84;;;10.20;100.00
29045;BME280;16133;49.486;12.176;2023-05-29T04:46:26;97561.94;;;10.88;100.00
29045;BME280;16133;49.486;12.176;2023-05-29T04:48:52;97564.31;;;11.87;100.00
29045;BME280;16133;49.486;12.176;2023-05-29T04:51:22;97564.66;;;13.28;92.19
29045;BME280;16133;49.486;12.176;2023-05-29T04:53:50;97567.44;;;14.44;82.04
29045;BME280;16133;49.486;12.176;2023-05-29T04:56:16;97573.19;;;15.54;75.46
29045;BME280;16133;49.486;12.176;2023-05-29T04:58:43;97573.56;;;16.61;70.52
29045;BME280;16133;49.486;12.176;2023-05-29T05:01:09;97570.97;;;17.67;65.20
29045;BME280;16133;49.486;12.176;2023-05-29T05:03:40;97572.94;;;18.57;61.13
29045;BME280;16133;49.486;12.176;2023-05-29T05:06:05;97573.72;;;19.06;57.68
29045;BME280;16133;49.486;12.176;2023-05-29T05:08:32;97579.38;;;19.69;54.39
29045;BME280;16133;49.486;12.176;2023-05-29T05:10:59;97581.81;;;20.05;53.49
29045;BME280;16133;49.486;12.176;2023-05-29T05:13:25;97588.03;;;20.41;52.19
29045;BME280;16133;49.486;12.176;2023-05-29T05:15:51;97580.50;;;20.83;50.85
29045;BME280;16133;49.486;12.176;2023-05-29T05:18:16;97586.06;;;21.33;48.59
29045;BME280;16133;49.486;12.176;2023-05-29T05:20:41;97587.94;;;21.66;47.52
29045;BME280;16133;49.486;12.176;2023-05-29T05:23:07;97586.16;;;21.88;46.79
29045;BME280;16133;49.486;12.176;2023-05-29T05:25:33;97591.13;;;22.29;45.50
29045;BME280;16133;49.486;12.176;2023-05-29T05:28:00;97589.38;;;22.62;44.36
29045;BME280;16133;49.486;12.176;2023-05-29T05:30:25;97591.53;;;22.81;43.95
29045;BME280;16133;49.486;12.176;2023-05-29T05:32:51;97589.22;;;23.17;42.65
29045;BME280;16133;49.486;12.176;2023-05-29T05:35:16;97590.75;;;23.34;42.05
29045;BME280;16133;49.486;12.176;2023-05-29T05:37:41;97589.53;;;23.47;42.02
29045;BME280;16133;49.486;12.176;2023-05-29T05:40:07;97594.56;;;23.65;42.17
29045;BME280;16133;49.486;12.176;2023-05-29T05:42:33;97593.03;;;23.74;41.55
29045;BME280;16133;49.486;12.176;2023-05-29T05:44:59;97585.78;;;23.80;40.79
29045;BME280;16133;49.486;12.176;2023-05-29T05:47:24;97593.56;;;23.71;41.18
29045;BME280;16133;49.486;12.176;2023-05-29T05:49:50;97590.25;;;23.64;40.64
29045;BME280;16133;49.486;12.176;2023-05-29T05:52:17;97588.56;;;23.58;40.66
29045;BME280;16133;49.486;12.176;2023-05-29T05:54:43;97592.38;;;23.62;41.24
29045;BME280;16133;49.486;12.176;2023-05-29T05:57:08;97587.25;;;23.61;40.23
29045;BME280;16133;49.486;12.176;2023-05-29T05:59:34;97600.94;;;23.49;41.14
29045;BME280;16133;49.486;12.176;2023-05-29T06:01:59;97599.91;;;23.28;40.75
29045;BME280;16133;49.486;12.176;2023-05-29T06:04:25;97602.97;;;23.10;40.53
29045;BME280;16133;49.486;12.176;2023-05-29T06:06:51;97600.34;;;23.20;40.64
29045;BME280;16133;49.486;12.176;2023-05-29T06:09:16;97596.13;;;23.56;40.83
29045;BME280;16133;49.486;12.176;2023-05-29T06:11:41;97606.97;;;23.56;41.07
29045;BME280;16133;49.486;12.176;2023-05-29T06:14:07;97607.56;;;23.37;41.63
29045;BME280;16133;49.486;12.176;2023-05-29T06:16:32;97611.25;;;23.25;42.18
29045;BME280;16133;49.486;12.176;2023-05-29T06:18:58;97607.78;;;23.30;41.07
29045;BME280;16133;49.486;12.176;2023-05-29T06:21:23;97606.22;;;23.12;40.94
29045;BME280;16133;49.486;12.176;2023-05-29T06:23:49;97604.25;;;22.81;40.65
29045;BME280;16133;49.486;12.176;2023-05-29T06:26:14;97602.34;;;22.60;41.25
29045;BME280;16133;49.486;12.176;2023-05-29T06:28:41;97602.13;;;22.06;42.25
29045;BME280;16133;49.486;12.176;2023-05-29T06:31:06;97611.34;;;21.43;43.07
29045;BME280;16133;49.486;12.176;2023-05-29T06:33:32;97605.38;;;20.85;45.08
29045;BME280;16133;49.486;12.176;2023-05-29T06:35:57;97610.53;;;20.12;46.34
29045;BME280;16133;49.486;12.176;2023-05-29T06:38:23;97616.13;;;19.75;46.90
29045;BME280;16133;49.486;12.176;2023-05-29T06:40:48;97622.53;;;19.21;49.26
29045;BME280;16133;49.486;12.176;2023-05-29T06:43:14;97615.19;;;18.98;49.32
29045;BME280;16133;49.486;12.176;2023-05-29T06:45:40;97626.94;;;18.86;50.08
29045;BME280;16133;49.486;12.176;2023-05-29T06:48:06;97621.06;;;18.77;51.30
29045;BME280;16133;49.486;12.176;2023-05-29T06:50:31;97626.75;;;18.69;50.79
29045;BME280;16133;49.486;12.176;2023-05-29T06:52:56;97617.13;;;18.61;50.59
29045;BME280;16133;49.486;12.176;2023-05-29T06:55:22;97619.94;;;18.67;50.24
29045;BME280;16133;49.486;12.176;2023-05-29T06:57:47;97618.00;;;18.55;51.53
29045;BME280;16133;49.486;12.176;2023-05-29T07:00:13;97627.56;;;18.70;49.79
29045;BME280;16133;49.486;12.176;2023-05-29T07:02:38;97618.38;;;18.77;50.17
29045;BME280;16133;49.486;12.176;2023-05-29T07:05:04;97623.22;;;18.87;50.58
29045;BME280;16133;49.486;12.176;2023-05-29T07:07:30;97622.13;;;19.06;48.76
29045;BME280;16133;49.486;12.176;2023-05-29T07:09:55;97617.38;;;18.90;48.71
29045;BME280;16133;49.486;12.176;2023-05-29T07:12:22;97626.56;;;19.00;47.97
29045;BME280;16133;49.486;12.176;2023-05-29T07:14:48;97613.31;;;18.99;46.19
29045;BME280;16133;49.486;12.176;2023-05-29T07:17:14;97617.03;;;19.16;46.04
29045;BME280;16133;49.486;12.176;2023-05-29T07:19:40;97619.75;;;19.28;44.94
29045;BME280;16133;49.486;12.176;2023-05-29T07:22:05;97624.78;;;19.36;46.49
29045;BME280;16133;49.486;12.176;2023-05-29T07:24:31;97624.50;;;19.44;44.01
29045;BME280;16133;49.486;12.176;2023-05-29T07:26:56;97627.22;;;19.55;43.48
29045;BME280;16133;49.486;12.176;2023-05-29T07:29:22;97626.50;;;19.48;44.00
29045;BME280;16133;49.486;12.176;2023-05-29T07:31:49;97620.31;;;19.60;43.92
29045;BME280;16133;49.486;12.176;2023-05-29T07:34:14;97620.94;;;19.62;43.18
29045;BME280;16133;49.486;12.176;2023-05-29T07:37:03;97617.88;;;19.58;44.43
29045;BME280;16133;49.486;12.176;2023-05-29T07:39:30;97616.94;;;19.64;44.15
29045;BME280;16133;49.486;12.176;2023-05-29T07:41:55;97621.41;;;19.59;43.60
29045;BME280;16133;49.486;12.176;2023-05-29T07:44:21;97620.06;;;19.49;44.83
29045;BME280;16133;49.486;12.176;2023-05-29T07:46:46;97615.28;;;19.51;44.93
29045;BME280;16133;49.486;12.176;2023-05-29T07:49:11;97627.00;;;19.69;43.82
29045;BME280;16133;49.486;12.176;2023-05-29T07:51:37;97634.06;;;19.70;42.93
29045;BME280;16133;49.486;12.176;2023-05-29T07:54:03;97621.16;;;19.60;44.68
29045;BME280;16133;49.486;12.176;2023-05-29T07:56:28;97621.00;;;19.55;43.53
29045;BME280;16133;49.486;12.176;2023-05-29T07:58:54;97627.34;;;19.61;43.37
29045;BME280;16133;49.486;12.176;2023-05-29T08:01:21;97627.00;;;19.57;43.95
29045;BME280;16133;49.486;12.176;2023-05-29T08:03:47;97623.13;;;19.53;44.90
29045;BME280;16133;49.486;12.176;2023-05-29T08:06:13;97632.41;;;19.69;44.08
29045;BME280;16133;49.486;12.176;2023-05-29T08:08:38;97628.19;;;19.73;43.08
29045;BME280;16133;49.486;12.176;2023-05-29T08:11:05;97627.72;;;19.76;43.38
29045;BME280;16133;49.486;12.176;2023-05-29T08:13:30;97634.28;;;19.68;43.29
29045;BME280;16133;49.486;12.176;2023-05-29T08:15:56;97630.63;;;19.63;43.96
29045;BME280;16133;49.486;12.176;2023-05-29T08:18:25;97634.06;;;19.70;42.32
29045;BME280;16133;49.486;12.176;2023-05-29T08:20:53;97626.16;;;19.56;44.81
29045;BME280;16133;49.486;12.176;2023-05-29T08:23:19;97627.00;;;19.69;43.38
29045;BME280;16133;49.486;12.176;2023-05-29T08:25:44;97631.13;;;19.83;43.61
29045;BME280;16133;49.486;12.176;2023-05-29T08:28:10;97629.03;;;19.85;44.48
29045;BME280;16133;49.486;12.176;2023-05-29T08:30:35;97632.28;;;19.87;43.63
29045;BME280;16133;49.486;12.176;2023-05-29T08:33:02;97626.91;;;19.98;42.92
29045;BME280;16133;49.486;12.176;2023-05-29T08:35:28;97628.22;;;19.96;44.02
29045;BME280;16133;49.486;12.176;2023-05-29T08:37:53;97631.25;;;19.99;43.59
29045;BME280;16133;49.486;12.176;2023-05-29T08:40:19;97632.78;;;19.95;41.90
29045;BME280;16133;49.486;12.176;2023-05-29T08:45:42;97622.56;;;19.74;43.22
29045;BME280;16133;49.486;12.176;2023-05-29T08:48:09;97625.50;;;19.73;43.90
29045;BME280;16133;49.486;12.176;2023-05-29T08:50:37;97622.69;;;19.79;43.24
29045;BME280;16133;49.486;12.176;2023-05-29T08:53:04;97622.56;;;19.86;44.76
29045;BME280;16133;49.486;12.176;2023-05-29T08:55:31;97626.44;;;20.01;43.01
29045;BME280;16133;49.486;12.176;2023-05-29T08:57:57;97629.59;;;19.87;42.72
29045;BME280;16133;49.486;12.176;2023-05-29T09:00:23;97628.44;;;19.83;42.79
29045;BME280;16133;49.486;12.176;2023-05-29T09:02:53;97628.69;;;19.81;42.80
29045;BME280;16133;49.486;12.176;2023-05-29T09:05:20;97625.41;;;19.91;42.08
29045;BME280;16133;49.486;12.176;2023-05-29T09:07:46;97633.13;;;19.99;41.89
29045;BME280;16133;49.486;12.176;2023-05-29T09:10:14;97634.09;;;19.93;42.31
29045;BME280;16133;49.486;12.176;2023-05-29T09:12:40;97630.91;;;19.84;43.97
29045;BME280;16133;49.486;12.176;2023-05-29T09:15:17;97633.69;;;19.78;41.59
29045;BME280;16133;49.486;12.176;2023-05-29T09:17:44;97626.06;;;19.75;41.01
29045;BME280;16133;49.486;12.176;2023-05-29T09:20:19;97635.59;;;19.77;41.43
29045;BME280;16133;49.486;12.176;2023-05-29T09:25:27;97632.19;;;20.05;42.11
29045;BME280;16133;49.486;12.176;2023-05-29T09:28:04;97636.03;;;19.97;40.77
29045;BME280;16133;49.486;12.176;2023-05-29T09:30:33;97628.78;;;19.86;42.40
29045;BME280;16133;49.486;12.176;2023-05-29T09:33:00;97625.03;;;19.87;43.71
29045;BME280;16133;49.486;12.176;2023-05-29T09:35:31;97629.13;;;19.90;41.79
29045;BME280;16133;49.486;12.176;2023-05-29T09:37:57;97631.97;;;19.95;40.91
29045;BME280;16133;49.486;12.176;2023-05-29T09:40:22;97631.00;;;20.01;41.25
29045;BME280;16133;49.486;12.176;2023-05-29T09:42:48;97623.75;;;20.13;40.21
29045;BME280;16133;49.486;12.176;2023-05-29T09:45:17;97626.09;;;19.98;41.78
29045;BME280;16133;49.486;12.176;2023-05-29T09:47:42;97616.75;;;20.12;40.84
29045;BME280;16133;49.486;12.176;2023-05-29T09:50:18;97622.00;;;20.07;41.02
29045;BME280;16133;49.486;12.176;2023-05-29T09:52:45;97630.31;;;20.17;40.38
29045;BME280;16133;49.486;12.176;2023-05-29T09:55:13;97629.84;;;20.20;41.67
29045;BME280;16133;49.486;12.176;2023-05-29T09:57:45;97618.13;;;20.26;39.51
29045;BME280;16133;49.486;12.176;2023-05-29T10:00:12;97635.69;;;20.17;40.69
29045;BME280;16133;49.486;12.176;2023-05-29T10:02:38;97628.22;;;20.19;41.45
29045;BME280;16133;49.486;12.176;2023-05-29T10:05:06;97624.34;;;20.27;41.29
29045;BME280;16133;49.486;12.176;2023-05-29T10:07:35;97621.53;;;20.57;38.92
29045;BME280;16133;49.486;12.176;2023-05-29T10:10:05;97619.53;;;20.40;38.91
29045;BME280;16133;49.486;12.176;2023-05-29T10:12:54;97618.63;;;20.46;40.19
29045;BME280;16133;49.486;12.176;2023-05-29T10:15:23;97623.16;;;20.58;38.27
29045;BME280;16133;49.486;12.176;2023-05-29T10:18:03;97622.09;;;20.59;38.92
29045;BME280;16133;49.486;12.176;2023-05-29T10:20:31;97621.06;;;20.48;39.87
29045;BME280;16133;49.486;12.176;2023-05-29T10:23:00;97620.72;;;20.44;39.06
29045;BME280;16133;49.486;12.176;2023-05-29T10:25:27;97627.28;;;20.48;38.82
29045;BME280;16133;49.486;12.176;2023-05-29T10:27:55;97612.75;;;20.49;39.53
29045;BME280;16133;49.486;12.176;2023-05-29T10:31:09;97622.09;;;20.59;39.78
29045;BME280;16133;49.486;12.176;2023-05-29T10:36:10;97613.69;;;20.43;39.63
29045;BME280;16133;49.486;12.176;2023-05-29T10:38:40;97614.63;;;20.37;39.61
29045;BME280;16133;49.486;12.176;2023-05-29T10:43:53;97604.16;;;20.64;38.38
29045;BME280;16133;49.486;12.176;2023-05-29T10:46:18;97611.25;;;20.82;37.46
29045;BME280;16133;49.486;12.176;2023-05-29T10:48:43;97599.22;;;20.73;37.62
29045;BME280;16133;49.486;12.176;2023-05-29T10:51:26;97606.13;;;20.69;38.89
29045;BME280;16133;49.486;12.176;2023-05-29T10:53:51;97603.16;;;20.82;39.67
29045;BME280;16133;49.486;12.176;2023-05-29T10:56:28;97595.72;;;20.89;38.49
29045;BME280;16133;49.486;12.176;2023-05-29T10:58:55;97599.84;;;20.91;38.61
29045;BME280;16133;49.486;12.176;2023-05-29T11:01:22;97594.78;;;20.95;39.48
29045;BME280;16133;49.486;12.176;2023-05-29T11:03:48;97598.94;;;21.14;39.01
29045;BME280;16133;49.486;12.176;2023-05-29T11:06:21;97588.16;;;21.14;39.64
29045;BME280;16133;49.486;12.176;2023-05-29T11:08:56;97593.56;;;21.14;39.91
29045;BME280;16133;49.486;12.176;2023-05-29T11:11:40;97592.25;;;21.17;39.33
29045;BME280;16133;49.486;12.176;2023-05-29T11:14:07;97594.72;;;21.18;39.34
29045;BME280;16133;49.486;12.176;2023-05-29T11:19:04;97591.69;;;21.31;38.99
29045;BME280;16133;49.486;12.176;2023-05-29T11:23:59;97582.94;;;21.24;38.25
29045;BME280;16133;49.486;12.176;2023-05-29T11:26:28;97581.50;;;21.33;39.62
29045;BME280;16133;49.486;12.176;2023-05-29T11:28:57;97581.66;;;21.43;38.02
29045;BME280;16133;49.486;12.176;2023-05-29T11:31:23;97582.97;;;21.41;39.31
29045;BME280;16133;49.486;12.176;2023-05-29T11:33:50;97578.47;;;21.46;37.57
29045;BME280;16133;49.486;12.176;2023-05-29T11:36:17;97589.25;;;21.46;38.75
29045;BME280;16133;49.486;12.176;2023-05-29T11:38:44;97591.00;;;21.53;37.98
29045;BME280;16133;49.486;12.176;2023-05-29T11:41:10;97586.16;;;21.55;37.39
29045;BME280;16133;49.486;12.176;2023-05-29T11:43:35;97587.25;;;21.54;37.33
29045;BME280;16133;49.486;12.176;2023-05-29T11:46:01;97584.53;;;21.54;36.91
29045;BME280;16133;49.486;12.176;2023-05-29T11:48:26;97574.31;;;21.56;37.68
29045;BME280;16133;49.486;12.176;2023-05-29T11:50:55;97580.34;;;21.63;36.20
29045;BME280;16133;49.486;12.176;2023-05-29T11:53:20;97577.66;;;21.79;34.66
29045;BME280;16133;49.486;12.176;2023-05-29T11:55:46;97591.25;;;21.84;34.31
29045;BME280;16133;49.486;12.176;2023-05-29T11:58:11;97594.28;;;21.88;34.38
29045;BME280;16133;49.486;12.176;2023-05-29T12:00:47;97583.81;;;21.91;35.00
29045;BME280;16133;49.486;12.176;2023-05-29T12:03:15;97591.56;;;21.88;34.96
29045;BME280;16133;49.486;12.176;2023-05-29T12:05:47;97574.69;;;21.81;34.58
29045;BME280;16133;49.486;12.176;2023-05-29T12:08:14;97568.16;;;21.77;35.15
29045;BME280;16133;49.486;12.176;2023-05-29T12:10:50;97562.50;;;21.78;35.26
29045;BME280;16133;49.486;12.176;2023-05-29T12:13:18;97575.38;;;21.88;34.99
29045;BME280;16133;49.486;12.176;2023-05-29T12:15:44;97565.94;;;22.07;32.71
29045;BME280;16133;49.486;12.176;2023-05-29T12:18:11;97569.22;;;22.09;34.71
29045;BME280;16133;49.486;12.176;2023-05-29T12:20:37;97567.81;;;22.07;34.66
29045;BME280;16133;49.486;12.176;2023-05-29T12:23:02;97568.38;;;22.09;34.84
29045;BME280;16133;49.486;12.176;2023-05-29T12:25:34;97562.94;;;22.04;34.32
29045;BME280;16133;49.486;12.176;2023-05-29T12:28:02;97563.16;;;22.02;34.35
29045;BME280;16133;49.486;12.176;2023-05-29T12:30:27;97558.81;;;22.01;33.53
29045;BME280;16133;49.486;12.176;2023-05-29T12:32:53;97565.03;;;22.18;33.51
29045;BME280;16133;49.486;12.176;2023-05-29T12:35:25;97570.16;;;22.20;33.10
29045;BME280;16133;49.486;12.176;2023-05-29T12:38:04;97566.22;;;22.27;34.20
29045;BME280;16133;49.486;12.176;2023-05-29T12:40:32;97572.94;;;22.47;33.14
29045;BME280;16133;49.486;12.176;2023-05-29T12:43:05;97571.81;;;22.42;31.95
29045;BME280;16133;49.486;12.176;2023-05-29T12:45:32;97558.75;;;22.34;32.04
29045;BME280;16133;49.486;12.176;2023-05-29T12:48:06;97561.47;;;22.34;33.06
29045;BME280;16133;49.486;12.176;2023-05-29T12:50:37;97567.97;;;22.38;31.98
29045;BME280;16133;49.486;12.176;2023-05-29T12:55:36;97557.34;;;22.32;31.97
29045;BME280;16133;49.486;12.176;2023-05-29T12:58:03;97557.22;;;22.44;30.64
29045;BME280;16133;49.486;12.176;2023-05-29T13:00:29;97561.16;;;22.53;30.53
29045;BME280;16133;49.486;12.176;2023-05-29T13:02:55;97558.28;;;22.42;29.92
29045;BME280;16133;49.486;12.176;2023-05-29T13:05:20;97564.00;;;22.46;29.80
29045;BME280;16133;49.486;12.176;2023-05-29T13:07:51;97553.41;;;22.39;29.92
29045;BME280;16133;49.486;12.176;2023-05-29T13:10:17;97553.91;;;22.36;29.96
29045;BME280;16133;49.486;12.176;2023-05-29T13:12:43;97544.22;;;22.40;29.78
29045;BME280;16133;49.486;12.176;2023-05-29T13:15:10;97536.03;;;22.35;30.75
29045;BME280;16133;49.486;12.176;2023-05-29T13:17:36;97546.09;;;22.40;30.36